sensor_id;sensor_type;location;lat;lon;timestamp;P1;durP1;ratioP1;P2;durP2;ratioP2
6197;SDS011;3132;42.622;23.328;2022-09-02T00:00:44;20.57;;;18.67;;
6197;SDS011;3132;42.622;23.328;2022-09-02T00:03:18;19.35;;;17.23;;
6197;SDS011;3132;42.622;23.328;2022-09-02T00:05:44;20.73;;;18.53;;
6197;SDS011;3132;42.622;23.328;2022-09-02T00:08:10;19.27;;;17.47;;
6197;SDS011;3132;42.622;23.328;2022-09-02T00:10:37;20.33;;;18.33;;
6197;SDS011;3132;42.622;23.328;2022-09-02T00:13:05;19.23;;;17.43;;
6197;SDS011;3132;42.622;23.328;2022-09-02T00:15:33;20.60;;;18.60;;
6197;SDS011;3132;42.622;23.328;2022-09-02T00:17:59;19.80;;;17.90;;
6197;SDS011;3132;42.622;23.328;2022-09-02T00:20:25;20.70;;;18.70;;
6197;SDS011;3132;42.622;23.328;2022-09-02T00:22:52;19.87;;;17.87;;
6197;SDS011;3132;42.622;23.328;2022-09-02T00:25:17;20.30;;;18.40;;
6197;SDS011;3132;42.622;23.328;2022-09-02T00:27:43;21.57;;;19.27;;
6197;SDS011;3132;42.622;23.328;2022-09-02T00:30:08;23.47;;;18.70;;
6197;SDS011;3132;42.622;23.328;2022-09-02T00:32:34;21.90;;;19.17;;
6197;SDS011;3132;42.622;23.328;2022-09-02T00:35:00;22.17;;;19.83;;
6197;SDS011;3132;42.622;23.328;2022-09-02T00:37:26;20.17;;;18.17;;
6197;SDS011;3132;42.622;23.328;2022-09-02T00:39:52;21.27;;;19.23;;
6197;SDS011;3132;42.622;23.328;2022-09-02T00:42:18;21.53;;;19.43;;
6197;SDS011;3132;42.622;23.328;2022-09-02T00:44:44;26.57;;;19.70;;
6197;SDS011;3132;42.622;23.328;2022-09-02T00:47:10;22.13;;;19.47;;
6197;SDS011;3132;42.622;23.328;2022-09-02T00:49:37;22.27;;;19.90;;
6197;SDS011;3132;42.622;23.328;2022-09-02T00:52:13;22.13;;;20.03;;
6197;SDS011;3132;42.622;23.328;2022-09-02T00:54:54;21.77;;;19.53;;
6197;SDS011;3132;42.622;23.328;2022-09-02T00:57:24;21.30;;;19.30;;
6197;SDS011;3132;42.622;23.328;2022-09-02T01:02:25;22.13;;;18.70;;
6197;SDS011;3132;42.622;23.328;2022-09-02T01:04:56;23.00;;;20.07;;
6197;SDS011;3132;42.622;23.328;2022-09-02T01:07:24;21.63;;;19.43;;
6197;SDS011;3132;42.622;23.328;2022-09-02T01:09:53;23.00;;;19.57;;
6197;SDS011;3132;42.622;23.328;2022-09-02T01:12:23;21.77;;;19.60;;
6197;SDS011;3132;42.622;23.328;2022-09-02T01:14:51;21.83;;;19.47;;
6197;SDS011;3132;42.622;23.328;2022-09-02T01:17:16;21.93;;;19.43;;
6197;SDS011;3132;42.622;23.328;2022-09-02T01:19:46;23.67;;;20.00;;
6197;SDS011;3132;42.622;23.328;2022-09-02T01:22:17;20.73;;;18.60;;
6197;SDS011;3132;42.622;23.328;2022-09-02T01:24:45;21.37;;;18.27;;
6197;SDS011;3132;42.622;23.328;2022-09-02T01:27:15;20.27;;;17.97;;
6197;SDS011;3132;42.622;23.328;2022-09-02T01:29:42;25.20;;;19.80;;
6197;SDS011;3132;42.622;23.328;2022-09-02T01:32:08;21.37;;;18.73;;
6197;SDS011;3132;42.622;23.328;2022-09-02T01:34:33;22.70;;;19.67;;
6197;SDS011;3132;42.622;23.328;2022-09-02T01:36:59;22.10;;;18.80;;
6197;SDS011;3132;42.622;23.328;2022-09-02T01:39:24;21.33;;;18.90;;
6197;SDS011;3132;42.622;23.328;2022-09-02T01:41:50;21.70;;;18.80;;
6197;SDS011;3132;42.622;23.328;2022-09-02T01:44:16;20.83;;;18.87;;
6197;SDS011;3132;42.622;23.328;2022-09-02T01:46:43;23.30;;;19.57;;
6197;SDS011;3132;42.622;23.328;2022-09-02T01:49:08;23.60;;;19.40;;
6197;SDS011;3132;42.622;23.328;2022-09-02T01:51:34;25.53;;;21.00;;
6197;SDS011;3132;42.622;23.328;2022-09-02T01:53:59;23.40;;;20.50;;
6197;SDS011;3132;42.622;23.328;2022-09-02T01:56:25;24.63;;;20.00;;
6197;SDS011;3132;42.622;23.328;2022-09-02T01:58:50;22.70;;;20.43;;
6197;SDS011;3132;42.622;23.328;2022-09-02T02:01:16;21.97;;;19.57;;
6197;SDS011;3132;42.622;23.328;2022-09-02T02:03:41;22.20;;;19.83;;
6197;SDS011;3132;42.622;23.328;2022-09-02T02:06:08;22.23;;;19.47;;
6197;SDS011;3132;42.622;23.328;2022-09-02T02:08:38;23.37;;;20.87;;
6197;SDS011;3132;42.622;23.328;2022-09-02T02:11:04;23.67;;;20.43;;
6197;SDS011;3132;42.622;23.328;2022-09-02T02:13:30;22.80;;;20.03;;
6197;SDS011;3132;42.622;23.328;2022-09-02T02:15:56;22.17;;;19.73;;
6197;SDS011;3132;42.622;23.328;2022-09-02T02:18:21;23.97;;;19.13;;
6197;SDS011;3132;42.622;23.328;2022-09-02T02:20:46;23.07;;;20.63;;
6197;SDS011;3132;42.622;23.328;2022-09-02T02:23:12;23.80;;;21.27;;
6197;SDS011;3132;42.622;23.328;2022-09-02T02:25:38;24.07;;;20.07;;
6197;SDS011;3132;42.622;23.328;2022-09-02T02:28:03;20.97;;;18.13;;
6197;SDS011;3132;42.622;23.328;2022-09-02T02:30:28;23.97;;;19.47;;
6197;SDS011;3132;42.622;23.328;2022-09-02T02:32:54;19.97;;;17.83;;
6197;SDS011;3132;42.622;23.328;2022-09-02T02:35:19;19.50;;;17.43;;
6197;SDS011;3132;42.622;23.328;2022-09-02T02:37:46;19.07;;;16.93;;
6197;SDS011;3132;42.622;23.328;2022-09-02T02:40:13;17.67;;;15.83;;
6197;SDS011;3132;42.622;23.328;2022-09-02T02:42:39;18.83;;;16.93;;
6197;SDS011;3132;42.622;23.328;2022-09-02T02:45:05;20.93;;;17.30;;
6197;SDS011;3132;42.622;23.328;2022-09-02T02:47:36;19.60;;;17.73;;
6197;SDS011;3132;42.622;23.328;2022-09-02T02:50:03;18.93;;;17.13;;
6197;SDS011;3132;42.622;23.328;2022-09-02T02:52:29;20.57;;;17.03;;
6197;SDS011;3132;42.622;23.328;2022-09-02T02:54:54;18.60;;;16.53;;
6197;SDS011;3132;42.622;23.328;2022-09-02T02:57:19;18.80;;;17.00;;
6197;SDS011;3132;42.622;23.328;2022-09-02T02:59:45;19.47;;;17.53;;
6197;SDS011;3132;42.622;23.328;2022-09-02T03:02:10;19.37;;;17.33;;
6197;SDS011;3132;42.622;23.328;2022-09-02T03:04:36;20.37;;;17.40;;
6197;SDS011;3132;42.622;23.328;2022-09-02T03:07:03;19.53;;;17.63;;
6197;SDS011;3132;42.622;23.328;2022-09-02T03:09:31;22.53;;;19.30;;
6197;SDS011;3132;42.622;23.328;2022-09-02T03:11:58;20.40;;;18.40;;
6197;SDS011;3132;42.622;23.328;2022-09-02T03:14:23;19.40;;;17.60;;
6197;SDS011;3132;42.622;23.328;2022-09-02T03:16:49;20.17;;;18.07;;
6197;SDS011;3132;42.622;23.328;2022-09-02T03:19:14;20.53;;;18.43;;
6197;SDS011;3132;42.622;23.328;2022-09-02T03:21:40;18.87;;;16.87;;
6197;SDS011;3132;42.622;23.328;2022-09-02T03:24:06;17.80;;;16.00;;
6197;SDS011;3132;42.622;23.328;2022-09-02T03:26:33;18.93;;;17.03;;
6197;SDS011;3132;42.622;23.328;2022-09-02T03:28:58;17.90;;;16.20;;
6197;SDS011;3132;42.622;23.328;2022-09-02T03:31:24;18.80;;;16.83;;
6197;SDS011;3132;42.622;23.328;2022-09-02T03:33:52;17.20;;;15.60;;
6197;SDS011;3132;42.622;23.328;2022-09-02T03:36:19;17.03;;;15.33;;
6197;SDS011;3132;42.622;23.328;2022-09-02T03:38:47;17.37;;;15.57;;
6197;SDS011;3132;42.622;23.328;2022-09-02T03:41:12;17.33;;;15.53;;
6197;SDS011;3132;42.622;23.328;2022-09-02T03:43:37;16.57;;;15.13;;
6197;SDS011;3132;42.622;23.328;2022-09-02T03:46:03;17.80;;;16.03;;
6197;SDS011;3132;42.622;23.328;2022-09-02T03:48:29;17.43;;;15.63;;
6197;SDS011;3132;42.622;23.328;2022-09-02T03:50:54;15.60;;;14.00;;
6197;SDS011;3132;42.622;23.328;2022-09-02T03:53:20;14.53;;;13.27;;
6197;SDS011;3132;42.622;23.328;2022-09-02T03:55:45;14.87;;;13.57;;
6197;SDS011;3132;42.622;23.328;2022-09-02T03:58:10;15.40;;;13.80;;
6197;SDS011;3132;42.622;23.328;2022-09-02T04:00:36;15.77;;;14.43;;
6197;SDS011;3132;42.622;23.328;2022-09-02T04:03:02;15.10;;;13.80;;
6197;SDS011;3132;42.622;23.328;2022-09-02T04:05:28;15.33;;;13.83;;
6197;SDS011;3132;42.622;23.328;2022-09-02T04:07:54;15.03;;;13.43;;
6197;SDS011;3132;42.622;23.328;2022-09-02T04:10:20;14.07;;;12.87;;
6197;SDS011;3132;42.622;23.328;2022-09-02T04:12:46;14.90;;;13.63;;
6197;SDS011;3132;42.622;23.328;2022-09-02T04:15:12;14.83;;;13.57;;
6197;SDS011;3132;42.622;23.328;2022-09-02T04:17:38;15.47;;;14.07;;
6197;SDS011;3132;42.622;23.328;2022-09-02T04:20:07;15.30;;;13.93;;
6197;SDS011;3132;42.622;23.328;2022-09-02T04:22:34;14.50;;;13.17;;
6197;SDS011;3132;42.622;23.328;2022-09-02T04:25:00;15.90;;;14.50;;
6197;SDS011;3132;42.622;23.328;2022-09-02T04:27:25;16.07;;;14.50;;
6197;SDS011;3132;42.622;23.328;2022-09-02T04:29:51;16.40;;;14.90;;
6197;SDS011;3132;42.622;23.328;2022-09-02T04:32:16;14.33;;;13.07;;
6197;SDS011;3132;42.622;23.328;2022-09-02T04:34:42;14.17;;;12.87;;
6197;SDS011;3132;42.622;23.328;2022-09-02T04:37:07;14.80;;;13.43;;
6197;SDS011;3132;42.622;23.328;2022-09-02T04:39:33;16.57;;;15.03;;
6197;SDS011;3132;42.622;23.328;2022-09-02T04:41:58;15.80;;;14.30;;
6197;SDS011;3132;42.622;23.328;2022-09-02T04:44:24;15.23;;;13.93;;
6197;SDS011;3132;42.622;23.328;2022-09-02T04:46:49;16.70;;;13.57;;
6197;SDS011;3132;42.622;23.328;2022-09-02T04:49:15;16.30;;;14.80;;
6197;SDS011;3132;42.622;23.328;2022-09-02T04:51:41;15.73;;;14.33;;
6197;SDS011;3132;42.622;23.328;2022-09-02T04:54:06;14.67;;;13.23;;
6197;SDS011;3132;42.622;23.328;2022-09-02T04:56:32;14.90;;;13.50;;
6197;SDS011;3132;42.622;23.328;2022-09-02T04:58:58;16.33;;;14.20;;
6197;SDS011;3132;42.622;23.328;2022-09-02T05:01:25;16.13;;;14.53;;
6197;SDS011;3132;42.622;23.328;2022-09-02T05:03:52;15.10;;;13.80;;
6197;SDS011;3132;42.622;23.328;2022-09-02T05:06:20;15.07;;;13.77;;
6197;SDS011;3132;42.622;23.328;2022-09-02T05:08:50;15.43;;;13.93;;
6197;SDS011;3132;42.622;23.328;2022-09-02T05:11:19;15.20;;;13.67;;
6197;SDS011;3132;42.622;23.328;2022-09-02T05:13:48;14.20;;;12.97;;
6197;SDS011;3132;42.622;23.328;2022-09-02T05:16:17;14.43;;;12.97;;
6197;SDS011;3132;42.622;23.328;2022-09-02T05:18:45;14.27;;;12.77;;
6197;SDS011;3132;42.622;23.328;2022-09-02T05:21:11;13.33;;;12.27;;
6197;SDS011;3132;42.622;23.328;2022-09-02T05:23:36;15.23;;;14.03;;
6197;SDS011;3132;42.622;23.328;2022-09-02T05:26:05;14.50;;;13.30;;
6197;SDS011;3132;42.622;23.328;2022-09-02T05:28:32;14.13;;;12.93;;
6197;SDS011;3132;42.622;23.328;2022-09-02T05:31:05;13.87;;;12.73;;
6197;SDS011;3132;42.622;23.328;2022-09-02T05:33:33;14.30;;;13.10;;
6197;SDS011;3132;42.622;23.328;2022-09-02T05:36:04;13.87;;;12.67;;
6197;SDS011;3132;42.622;23.328;2022-09-02T05:38:31;13.23;;;11.93;;
6197;SDS011;3132;42.622;23.328;2022-09-02T05:40:57;13.80;;;12.70;;
6197;SDS011;3132;42.622;23.328;2022-09-02T05:43:23;13.43;;;12.23;;
6197;SDS011;3132;42.622;23.328;2022-09-02T05:45:49;13.73;;;12.70;;
6197;SDS011;3132;42.622;23.328;2022-09-02T05:48:14;14.68;;;12.02;;
6197;SDS011;3132;42.622;23.328;2022-09-02T05:51:02;14.00;;;12.73;;
6197;SDS011;3132;42.622;23.328;2022-09-02T05:53:28;12.90;;;11.63;;
6197;SDS011;3132;42.622;23.328;2022-09-02T05:55:54;12.80;;;11.73;;
6197;SDS011;3132;42.622;23.328;2022-09-02T05:58:20;13.27;;;12.17;;
6197;SDS011;3132;42.622;23.328;2022-09-02T06:00:46;14.57;;;13.20;;
6197;SDS011;3132;42.622;23.328;2022-09-02T06:03:11;12.40;;;11.20;;
6197;SDS011;3132;42.622;23.328;2022-09-02T06:05:37;12.53;;;11.53;;
6197;SDS011;3132;42.622;23.328;2022-09-02T06:08:05;12.85;;;11.82;;
6197;SDS011;3132;42.622;23.328;2022-09-02T06:10:30;12.20;;;11.30;;
6197;SDS011;3132;42.622;23.328;2022-09-02T06:12:55;13.30;;;12.10;;
6197;SDS011;3132;42.622;23.328;2022-09-02T06:15:21;12.40;;;11.45;;
6197;SDS011;3132;42.622;23.328;2022-09-02T06:17:47;13.35;;;12.35;;
6197;SDS011;3132;42.622;23.328;2022-09-02T06:20:12;12.90;;;11.87;;
6197;SDS011;3132;42.622;23.328;2022-09-02T06:22:37;11.85;;;10.98;;
6197;SDS011;3132;42.622;23.328;2022-09-02T06:25:03;11.33;;;10.43;;
6197;SDS011;3132;42.622;23.328;2022-09-02T06:27:29;12.43;;;11.43;;
6197;SDS011;3132;42.622;23.328;2022-09-02T06:29:54;13.57;;;12.17;;
6197;SDS011;3132;42.622;23.328;2022-09-02T06:32:20;11.75;;;10.85;;
6197;SDS011;3132;42.622;23.328;2022-09-02T06:34:45;12.83;;;11.77;;
6197;SDS011;3132;42.622;23.328;2022-09-02T06:37:11;12.13;;;11.02;;
6197;SDS011;3132;42.622;23.328;2022-09-02T06:39:36;12.90;;;11.73;;
6197;SDS011;3132;42.622;23.328;2022-09-02T06:42:02;15.03;;;13.37;;
6197;SDS011;3132;42.622;23.328;2022-09-02T06:44:27;13.93;;;12.83;;
6197;SDS011;3132;42.622;23.328;2022-09-02T06:46:55;13.93;;;12.63;;
6197;SDS011;3132;42.622;23.328;2022-09-02T06:49:24;13.70;;;12.60;;
6197;SDS011;3132;42.622;23.328;2022-09-02T06:51:50;13.03;;;12.03;;
6197;SDS011;3132;42.622;23.328;2022-09-02T06:54:19;13.77;;;12.53;;
6197;SDS011;3132;42.622;23.328;2022-09-02T06:56:46;13.67;;;12.47;;
6197;SDS011;3132;42.622;23.328;2022-09-02T06:59:12;12.73;;;11.68;;
6197;SDS011;3132;42.622;23.328;2022-09-02T07:01:37;13.27;;;12.00;;
6197;SDS011;3132;42.622;23.328;2022-09-02T07:04:03;13.17;;;11.97;;
6197;SDS011;3132;42.622;23.328;2022-09-02T07:06:49;13.37;;;12.23;;
6197;SDS011;3132;42.622;23.328;2022-09-02T07:09:18;13.15;;;11.65;;
6197;SDS011;3132;42.622;23.328;2022-09-02T07:11:45;13.17;;;11.97;;
6197;SDS011;3132;42.622;23.328;2022-09-02T07:14:19;13.77;;;12.50;;
6197;SDS011;3132;42.622;23.328;2022-09-02T07:16:46;13.52;;;12.52;;
6197;SDS011;3132;42.622;23.328;2022-09-02T07:19:13;13.13;;;11.87;;
6197;SDS011;3132;42.622;23.328;2022-09-02T07:21:39;13.82;;;12.63;;
6197;SDS011;3132;42.622;23.328;2022-09-02T07:24:06;14.27;;;12.57;;
6197;SDS011;3132;42.622;23.328;2022-09-02T07:26:32;12.02;;;11.07;;
6197;SDS011;3132;42.622;23.328;2022-09-02T07:28:57;14.27;;;13.02;;
6197;SDS011;3132;42.622;23.328;2022-09-02T07:31:23;13.40;;;12.20;;
6197;SDS011;3132;42.622;23.328;2022-09-02T07:33:48;11.20;;;10.38;;
6197;SDS011;3132;42.622;23.328;2022-09-02T07:36:14;11.60;;;10.75;;
6197;SDS011;3132;42.622;23.328;2022-09-02T07:38:40;12.85;;;11.85;;
6197;SDS011;3132;42.622;23.328;2022-09-02T07:41:07;12.52;;;11.45;;
6197;SDS011;3132;42.622;23.328;2022-09-02T07:43:34;10.90;;;10.10;;
6197;SDS011;3132;42.622;23.328;2022-09-02T07:46:01;11.68;;;10.77;;
6197;SDS011;3132;42.622;23.328;2022-09-02T07:48:27;11.90;;;10.70;;
6197;SDS011;3132;42.622;23.328;2022-09-02T07:50:55;11.15;;;10.25;;
6197;SDS011;3132;42.622;23.328;2022-09-02T07:53:21;11.30;;;10.60;;
6197;SDS011;3132;42.622;23.328;2022-09-02T07:55:47;12.85;;;11.90;;
6197;SDS011;3132;42.622;23.328;2022-09-02T07:58:13;10.90;;;10.20;;
6197;SDS011;3132;42.622;23.328;2022-09-02T08:00:40;12.23;;;11.15;;
6197;SDS011;3132;42.622;23.328;2022-09-02T08:03:07;10.50;;;9.80;;
6197;SDS011;3132;42.622;23.328;2022-09-02T08:05:33;11.57;;;10.63;;
6197;SDS011;3132;42.622;23.328;2022-09-02T08:08:00;11.43;;;10.63;;
6197;SDS011;3132;42.622;23.328;2022-09-02T08:10:27;10.50;;;9.60;;
6197;SDS011;3132;42.622;23.328;2022-09-02T08:12:54;11.98;;;11.05;;
6197;SDS011;3132;42.622;23.328;2022-09-02T08:15:22;10.80;;;9.85;;
6197;SDS011;3132;42.622;23.328;2022-09-02T08:17:49;13.40;;;10.88;;
6197;SDS011;3132;42.622;23.328;2022-09-02T08:20:15;11.10;;;10.27;;
6197;SDS011;3132;42.622;23.328;2022-09-02T08:22:41;12.70;;;11.65;;
6197;SDS011;3132;42.622;23.328;2022-09-02T08:25:07;11.13;;;10.18;;
6197;SDS011;3132;42.622;23.328;2022-09-02T08:27:34;11.38;;;10.57;;
6197;SDS011;3132;42.622;23.328;2022-09-02T08:30:00;12.70;;;11.57;;
6197;SDS011;3132;42.622;23.328;2022-09-02T08:32:27;11.50;;;10.70;;
6197;SDS011;3132;42.622;23.328;2022-09-02T08:34:53;12.55;;;11.30;;
6197;SDS011;3132;42.622;23.328;2022-09-02T08:37:18;11.35;;;10.45;;
6197;SDS011;3132;42.622;23.328;2022-09-02T08:39:44;12.25;;;11.35;;
6197;SDS011;3132;42.622;23.328;2022-09-02T08:44:40;12.27;;;11.27;;
6197;SDS011;3132;42.622;23.328;2022-09-02T08:47:08;12.52;;;11.50;;
6197;SDS011;3132;42.622;23.328;2022-09-02T08:49:43;13.60;;;12.45;;
6197;SDS011;3132;42.622;23.328;2022-09-02T08:52:19;14.45;;;13.23;;
6197;SDS011;3132;42.622;23.328;2022-09-02T08:54:54;13.35;;;12.23;;
6197;SDS011;3132;42.622;23.328;2022-09-02T08:57:20;12.90;;;11.73;;
6197;SDS011;3132;42.622;23.328;2022-09-02T08:59:49;13.80;;;12.40;;
6197;SDS011;3132;42.622;23.328;2022-09-02T09:10:45;15.05;;;12.90;;
6197;SDS011;3132;42.622;23.328;2022-09-02T09:19:16;14.52;;;13.23;;
6197;SDS011;3132;42.622;23.328;2022-09-02T09:21:50;13.07;;;11.95;;
6197;SDS011;3132;42.622;23.328;2022-09-02T09:24:31;14.45;;;12.60;;
6197;SDS011;3132;42.622;23.328;2022-09-02T09:26:58;13.07;;;11.82;;
6197;SDS011;3132;42.622;23.328;2022-09-02T09:29:29;12.23;;;11.10;;
6197;SDS011;3132;42.622;23.328;2022-09-02T09:31:57;13.23;;;12.00;;
6197;SDS011;3132;42.622;23.328;2022-09-02T09:34:24;13.02;;;11.82;;
6197;SDS011;3132;42.622;23.328;2022-09-02T09:39:54;15.85;;;14.25;;
6197;SDS011;3132;42.622;23.328;2022-09-02T09:42:28;12.75;;;11.65;;
6197;SDS011;3132;42.622;23.328;2022-09-02T09:44:56;13.70;;;12.40;;
6197;SDS011;3132;42.622;23.328;2022-09-02T09:47:22;13.55;;;12.27;;
6197;SDS011;3132;42.622;23.328;2022-09-02T09:49:53;14.40;;;13.07;;
6197;SDS011;3132;42.622;23.328;2022-09-02T09:52:33;13.98;;;12.77;;
6197;SDS011;3132;42.622;23.328;2022-09-02T09:55:15;14.55;;;12.80;;
6197;SDS011;3132;42.622;23.328;2022-09-02T09:57:44;16.50;;;13.25;;
6197;SDS011;3132;42.622;23.328;2022-09-02T10:00:24;14.95;;;13.27;;
6197;SDS011;3132;42.622;23.328;2022-09-02T10:02:55;15.50;;;14.10;;
6197;SDS011;3132;42.622;23.328;2022-09-02T10:07:53;16.58;;;14.55;;
6197;SDS011;3132;42.622;23.328;2022-09-02T10:10:24;16.02;;;14.52;;
6197;SDS011;3132;42.622;23.328;2022-09-02T10:12:53;18.20;;;15.50;;
6197;SDS011;3132;42.622;23.328;2022-09-02T10:15:23;16.13;;;14.55;;
6197;SDS011;3132;42.622;23.328;2022-09-02T10:44:57;22.02;;;15.23;;
6197;SDS011;3132;42.622;23.328;2022-09-02T10:47:35;17.02;;;14.63;;
6197;SDS011;3132;42.622;23.328;2022-09-02T10:53:06;18.67;;;16.63;;
6197;SDS011;3132;42.622;23.328;2022-09-02T10:55:48;18.27;;;16.35;;
6197;SDS011;3132;42.622;23.328;2022-09-02T11:00:53;19.83;;;16.45;;
6197;SDS011;3132;42.622;23.328;2022-09-02T11:06:13;20.98;;;15.27;;
6197;SDS011;3132;42.622;23.328;2022-09-02T11:08:48;18.83;;;15.65;;
6197;SDS011;3132;42.622;23.328;2022-09-02T11:14:26;21.08;;;15.90;;
6197;SDS011;3132;42.622;23.328;2022-09-02T11:19:43;17.00;;;15.25;;
6197;SDS011;3132;42.622;23.328;2022-09-02T11:25:20;16.65;;;15.05;;
6197;SDS011;3132;42.622;23.328;2022-09-02T11:30:42;18.95;;;15.80;;
6197;SDS011;3132;42.622;23.328;2022-09-02T11:33:21;17.77;;;15.48;;
6197;SDS011;3132;42.622;23.328;2022-09-02T11:36:00;20.75;;;17.27;;
6197;SDS011;3132;42.622;23.328;2022-09-02T11:38:39;20.73;;;16.20;;
6197;SDS011;3132;42.622;23.328;2022-09-02T11:41:20;18.13;;;15.98;;
6197;SDS011;3132;42.622;23.328;2022-09-02T11:52:40;18.80;;;16.70;;
6197;SDS011;3132;42.622;23.328;2022-09-02T11:55:09;19.00;;;16.27;;
6197;SDS011;3132;42.622;23.328;2022-09-02T11:57:40;18.52;;;16.38;;
6197;SDS011;3132;42.622;23.328;2022-09-02T12:00:08;19.05;;;17.02;;
6197;SDS011;3132;42.622;23.328;2022-09-02T12:13:09;20.35;;;17.58;;
6197;SDS011;3132;42.622;23.328;2022-09-02T12:15:36;20.85;;;16.90;;
6197;SDS011;3132;42.622;23.328;2022-09-02T12:18:05;20.10;;;17.95;;
6197;SDS011;3132;42.622;23.328;2022-09-02T12:23:09;18.95;;;16.58;;
6197;SDS011;3132;42.622;23.328;2022-09-02T12:26:04;23.40;;;15.88;;
6197;SDS011;3132;42.622;23.328;2022-09-02T12:28:33;23.25;;;17.38;;
6197;SDS011;3132;42.622;23.328;2022-09-02T12:35:55;20.60;;;16.77;;
6197;SDS011;3132;42.622;23.328;2022-09-02T12:38:23;18.50;;;16.70;;
6197;SDS011;3132;42.622;23.328;2022-09-02T12:41:04;20.48;;;17.70;;
6197;SDS011;3132;42.622;23.328;2022-09-02T12:43:32;19.80;;;16.27;;
6197;SDS011;3132;42.622;23.328;2022-09-02T12:58:04;19.15;;;17.23;;
6197;SDS011;3132;42.622;23.328;2022-09-02T13:18:15;20.25;;;18.02;;
6197;SDS011;3132;42.622;23.328;2022-09-02T13:20:58;18.85;;;16.85;;
6197;SDS011;3132;42.622;23.328;2022-09-02T13:26:12;22.13;;;18.92;;
6197;SDS011;3132;42.622;23.328;2022-09-02T13:28:45;19.25;;;17.35;;
6197;SDS011;3132;42.622;23.328;2022-09-02T13:33:47;23.88;;;18.25;;
6197;SDS011;3132;42.622;23.328;2022-09-02T13:36:26;25.38;;;19.73;;
6197;SDS011;3132;42.622;23.328;2022-09-02T13:38:54;23.52;;;19.95;;
6197;SDS011;3132;42.622;23.328;2022-09-02T13:41:27;25.33;;;20.80;;
6197;SDS011;3132;42.622;23.328;2022-09-02T13:44:06;26.33;;;20.65;;
6197;SDS011;3132;42.622;23.328;2022-09-02T13:46:46;24.02;;;19.88;;
6197;SDS011;3132;42.622;23.328;2022-09-02T13:49:21;26.98;;;20.10;;
6197;SDS011;3132;42.622;23.328;2022-09-02T13:51:50;24.35;;;20.00;;
6197;SDS011;3132;42.622;23.328;2022-09-02T13:54:26;20.77;;;18.50;;
6197;SDS011;3132;42.622;23.328;2022-09-02T13:56:56;24.15;;;18.40;;
6197;SDS011;3132;42.622;23.328;2022-09-02T13:59:35;16.95;;;15.35;;
6197;SDS011;3132;42.622;23.328;2022-09-02T14:02:19;16.73;;;15.13;;
6197;SDS011;3132;42.622;23.328;2022-09-02T14:04:51;16.15;;;14.60;;
6197;SDS011;3132;42.622;23.328;2022-09-02T14:07:31;15.65;;;14.23;;
6197;SDS011;3132;42.622;23.328;2022-09-02T14:10:02;15.02;;;13.52;;
6197;SDS011;3132;42.622;23.328;2022-09-02T14:12:31;16.52;;;14.90;;
6197;SDS011;3132;42.622;23.328;2022-09-02T14:14:58;16.13;;;14.43;;
6197;SDS011;3132;42.622;23.328;2022-09-02T14:17:25;15.30;;;14.05;;
6197;SDS011;3132;42.622;23.328;2022-09-02T14:20:06;17.17;;;15.48;;
6197;SDS011;3132;42.622;23.328;2022-09-02T14:22:33;18.10;;;16.25;;
6197;SDS011;3132;42.622;23.328;2022-09-02T14:25:06;16.55;;;14.88;;
6197;SDS011;3132;42.622;23.328;2022-09-02T14:27:33;17.00;;;15.40;;
6197;SDS011;3132;42.622;23.328;2022-09-02T14:29:58;17.88;;;16.05;;
6197;SDS011;3132;42.622;23.328;2022-09-02T14:32:24;21.55;;;18.35;;
6197;SDS011;3132;42.622;23.328;2022-09-02T14:35:08;25.73;;;21.27;;
6197;SDS011;3132;42.622;23.328;2022-09-02T14:37:56;26.10;;;21.38;;
6197;SDS011;3132;42.622;23.328;2022-09-02T14:40:39;26.23;;;21.73;;
6197;SDS011;3132;42.622;23.328;2022-09-02T14:43:14;21.35;;;18.15;;
6197;SDS011;3132;42.622;23.328;2022-09-02T14:45:44;22.15;;;17.75;;
6197;SDS011;3132;42.622;23.328;2022-09-02T14:48:17;27.55;;;20.15;;
6197;SDS011;3132;42.622;23.328;2022-09-02T14:50:46;24.38;;;20.08;;
6197;SDS011;3132;42.622;23.328;2022-09-02T14:53:17;22.33;;;19.23;;
6197;SDS011;3132;42.622;23.328;2022-09-02T14:55:46;24.25;;;21.10;;
6197;SDS011;3132;42.622;23.328;2022-09-02T14:58:16;26.40;;;20.23;;
6197;SDS011;3132;42.622;23.328;2022-09-02T15:00:47;29.58;;;21.35;;
6197;SDS011;3132;42.622;23.328;2022-09-02T15:03:17;23.23;;;20.73;;
6197;SDS011;3132;42.622;23.328;2022-09-02T15:05:44;28.45;;;22.30;;
6197;SDS011;3132;42.622;23.328;2022-09-02T15:08:11;25.77;;;21.88;;
6197;SDS011;3132;42.622;23.328;2022-09-02T15:10:37;24.55;;;20.15;;
6197;SDS011;3132;42.622;23.328;2022-09-02T15:13:04;24.90;;;20.20;;
6197;SDS011;3132;42.622;23.328;2022-09-02T15:15:31;22.83;;;18.70;;
6197;SDS011;3132;42.622;23.328;2022-09-02T15:17:57;24.05;;;18.92;;
6197;SDS011;3132;42.622;23.328;2022-09-02T15:20:22;22.00;;;18.35;;
6197;SDS011;3132;42.622;23.328;2022-09-02T15:22:48;20.48;;;18.25;;
6197;SDS011;3132;42.622;23.328;2022-09-02T15:25:16;20.48;;;18.38;;
6197;SDS011;3132;42.622;23.328;2022-09-02T15:27:41;20.50;;;18.40;;
6197;SDS011;3132;42.622;23.328;2022-09-02T15:30:07;20.75;;;17.92;;
6197;SDS011;3132;42.622;23.328;2022-09-02T15:32:33;20.92;;;18.40;;
6197;SDS011;3132;42.622;23.328;2022-09-02T15:35:00;20.23;;;18.02;;
6197;SDS011;3132;42.622;23.328;2022-09-02T15:37:25;23.33;;;20.02;;
6197;SDS011;3132;42.622;23.328;2022-09-02T15:39:51;21.20;;;18.50;;
6197;SDS011;3132;42.622;23.328;2022-09-02T15:42:17;19.92;;;17.40;;
6197;SDS011;3132;42.622;23.328;2022-09-02T15:44:42;20.98;;;17.67;;
6197;SDS011;3132;42.622;23.328;2022-09-02T15:47:08;19.00;;;17.00;;
6197;SDS011;3132;42.622;23.328;2022-09-02T15:49:33;18.20;;;16.42;;
6197;SDS011;3132;42.622;23.328;2022-09-02T15:51:59;21.58;;;17.13;;
6197;SDS011;3132;42.622;23.328;2022-09-02T15:54:25;21.73;;;17.83;;
6197;SDS011;3132;42.622;23.328;2022-09-02T15:56:55;25.75;;;18.70;;
6197;SDS011;3132;42.622;23.328;2022-09-02T15:59:21;19.00;;;17.08;;
6197;SDS011;3132;42.622;23.328;2022-09-02T16:01:48;20.33;;;17.42;;
6197;SDS011;3132;42.622;23.328;2022-09-02T16:04:15;20.85;;;18.42;;
6197;SDS011;3132;42.622;23.328;2022-09-02T16:06:42;21.10;;;17.83;;
6197;SDS011;3132;42.622;23.328;2022-09-02T16:09:10;21.75;;;17.80;;
6197;SDS011;3132;42.622;23.328;2022-09-02T16:11:40;23.90;;;18.85;;
6197;SDS011;3132;42.622;23.328;2022-09-02T16:14:10;24.45;;;19.73;;
6197;SDS011;3132;42.622;23.328;2022-09-02T16:16:36;28.05;;;20.88;;
6197;SDS011;3132;42.622;23.328;2022-09-02T16:19:03;23.90;;;20.08;;
6197;SDS011;3132;42.622;23.328;2022-09-02T16:21:30;18.57;;;16.27;;
6197;SDS011;3132;42.622;23.328;2022-09-02T16:23:55;15.63;;;14.27;;
6197;SDS011;3132;42.622;23.328;2022-09-02T16:28:48;17.43;;;15.40;;
6197;SDS011;3132;42.622;23.328;2022-09-02T16:31:15;14.50;;;13.13;;
6197;SDS011;3132;42.622;23.328;2022-09-02T16:33:44;16.53;;;14.90;;
6197;SDS011;3132;42.622;23.328;2022-09-02T16:36:17;19.03;;;14.50;;
6197;SDS011;3132;42.622;23.328;2022-09-02T16:38:42;16.50;;;15.00;;
6197;SDS011;3132;42.622;23.328;2022-09-02T16:41:09;16.50;;;14.90;;
6197;SDS011;3132;42.622;23.328;2022-09-02T16:43:51;20.00;;;17.80;;
6197;SDS011;3132;42.622;23.328;2022-09-02T16:46:17;23.07;;;18.67;;
6197;SDS011;3132;42.622;23.328;2022-09-02T16:48:43;20.77;;;18.57;;
6197;SDS011;3132;42.622;23.328;2022-09-02T16:51:08;19.27;;;17.17;;
6197;SDS011;3132;42.622;23.328;2022-09-02T16:53:34;17.70;;;15.97;;
6197;SDS011;3132;42.622;23.328;2022-09-02T16:55:59;20.83;;;17.53;;
6197;SDS011;3132;42.622;23.328;2022-09-02T16:58:24;20.37;;;17.77;;